sensor_id;sensor_type;location;lat;lon;timestamp;P1;durP1;ratioP1;P2;durP2;ratioP2
46845;SDS011;33947;46.804;134.252;2023-04-15T00:03:13;6.32;;;2.85;;
46845;SDS011;33947;46.804;134.252;2023-04-15T00:06:18;16.00;;;4.00;;
46845;SDS011;33947;46.804;134.252;2023-04-15T00:12:27;12.15;;;3.10;;
46845;SDS011;33947;46.804;134.252;2023-04-15T00:15:32;9.20;;;3.70;;
46845;SDS011;33947;46.804;134.252;2023-04-15T00:18:37;8.00;;;3.03;;
46845;SDS011;33947;46.804;134.252;2023-04-15T00:21:41;9.30;;;4.10;;
46845;SDS011;33947;46.804;134.252;2023-04-15T00:24:46;14.20;;;3.63;;
46845;SDS011;33947;46.804;134.252;2023-04-15T00:27:50;5.20;;;2.40;;
46845;SDS011;33947;46.804;134.252;2023-04-15T00:30:54;6.15;;;2.50;;
46845;SDS011;33947;46.804;134.252;2023-04-15T00:33:58;51.03;;;18.13;;
46845;SDS011;33947;46.804;134.252;2023-04-15T00:37:03;17.30;;;5.97;;
46845;SDS011;33947;46.804;134.252;2023-04-15T00:40:10;7.67;;;2.77;;
46845;SDS011;33947;46.804;134.252;2023-04-15T00:43:16;3.22;;;2.35;;
46845;SDS011;33947;46.804;134.252;2023-04-15T00:46:20;3.60;;;2.13;;
46845;SDS011;33947;46.804;134.252;2023-04-15T00:49:26;7.40;;;3.03;;
46845;SDS011;33947;46.804;134.252;2023-04-15T00:52:32;3.95;;;2.40;;
46845;SDS011;33947;46.804;134.252;2023-04-15T00:55:37;9.90;;;2.50;;
46845;SDS011;33947;46.804;134.252;2023-04-15T00:58:42;6.37;;;2.33;;
46845;SDS011;33947;46.804;134.252;2023-04-15T01:01:46;4.60;;;2.42;;
46845;SDS011;33947;46.804;134.252;2023-04-15T01:04:50;4.72;;;2.53;;
46845;SDS011;33947;46.804;134.252;2023-04-15T01:07:54;8.55;;;2.30;;
46845;SDS011;33947;46.804;134.252;2023-04-15T01:11:00;21.73;;;4.32;;
46845;SDS011;33947;46.804;134.252;2023-04-15T01:14:05;4.03;;;2.45;;
46845;SDS011;33947;46.804;134.252;2023-04-15T01:17:11;4.13;;;2.20;;
46845;SDS011;33947;46.804;134.252;2023-04-15T01:20:16;4.68;;;2.42;;
46845;SDS011;33947;46.804;134.252;2023-04-15T01:23:21;7.78;;;3.22;;
46845;SDS011;33947;46.804;134.252;2023-04-15T01:26:26;19.20;;;3.50;;
46845;SDS011;33947;46.804;134.252;2023-04-15T01:29:31;3.58;;;2.20;;
46845;SDS011;33947;46.804;134.252;2023-04-15T01:32:39;17.23;;;3.45;;
46845;SDS011;33947;46.804;134.252;2023-04-15T01:36:02;2.75;;;2.20;;
46845;SDS011;33947;46.804;134.252;2023-04-15T01:39:09;5.93;;;2.40;;
46845;SDS011;33947;46.804;134.252;2023-04-15T01:42:13;3.50;;;2.30;;
46845;SDS011;33947;46.804;134.252;2023-04-15T01:45:17;5.93;;;2.55;;
46845;SDS011;33947;46.804;134.252;2023-04-15T01:48:22;3.75;;;2.40;;
46845;SDS011;33947;46.804;134.252;2023-04-15T01:51:27;2.75;;;1.83;;
46845;SDS011;33947;46.804;134.252;2023-04-15T01:54:31;6.50;;;2.30;;
46845;SDS011;33947;46.804;134.252;2023-04-15T01:57:36;2.22;;;1.73;;
46845;SDS011;33947;46.804;134.252;2023-04-15T02:00:40;8.65;;;2.47;;
46845;SDS011;33947;46.804;134.252;2023-04-15T02:03:45;3.88;;;2.08;;
46845;SDS011;33947;46.804;134.252;2023-04-15T02:06:50;4.05;;;2.33;;
46845;SDS011;33947;46.804;134.252;2023-04-15T02:09:56;5.53;;;2.60;;
46845;SDS011;33947;46.804;134.252;2023-04-15T02:13:01;8.23;;;2.10;;
46845;SDS011;33947;46.804;134.252;2023-04-15T02:16:14;5.63;;;1.90;;
46845;SDS011;33947;46.804;134.252;2023-04-15T02:19:19;5.93;;;2.10;;
46845;SDS011;33947;46.804;134.252;2023-04-15T02:22:24;7.83;;;2.00;;
46845;SDS011;33947;46.804;134.252;2023-04-15T02:25:28;10.60;;;2.65;;
46845;SDS011;33947;46.804;134.252;2023-04-15T02:28:32;2.55;;;1.77;;
46845;SDS011;33947;46.804;134.252;2023-04-15T02:31:37;4.28;;;1.90;;
46845;SDS011;33947;46.804;134.252;2023-04-15T02:34:42;2.63;;;1.67;;
46845;SDS011;33947;46.804;134.252;2023-04-15T02:37:46;2.40;;;1.83;;
46845;SDS011;33947;46.804;134.252;2023-04-15T02:40:52;7.47;;;2.03;;
46845;SDS011;33947;46.804;134.252;2023-04-15T02:43:57;1.83;;;1.50;;
46845;SDS011;33947;46.804;134.252;2023-04-15T02:47:03;4.97;;;2.45;;
46845;SDS011;33947;46.804;134.252;2023-04-15T02:50:10;22.42;;;3.85;;
46845;SDS011;33947;46.804;134.252;2023-04-15T02:53:16;9.15;;;2.70;;
46845;SDS011;33947;46.804;134.252;2023-04-15T02:56:22;8.68;;;2.90;;
46845;SDS011;33947;46.804;134.252;2023-04-15T02:59:26;2.88;;;1.90;;
46845;SDS011;33947;46.804;134.252;2023-04-15T03:02:34;3.83;;;2.03;;
46845;SDS011;33947;46.804;134.252;2023-04-15T03:05:39;4.13;;;2.67;;
46845;SDS011;33947;46.804;134.252;2023-04-15T03:08:45;6.30;;;2.60;;
46845;SDS011;33947;46.804;134.252;2023-04-15T03:11:50;4.70;;;2.50;;
46845;SDS011;33947;46.804;134.252;2023-04-15T03:14:56;11.52;;;2.88;;
46845;SDS011;33947;46.804;134.252;2023-04-15T03:18:07;10.80;;;3.83;;
46845;SDS011;33947;46.804;134.252;2023-04-15T03:21:11;6.78;;;3.20;;
46845;SDS011;33947;46.804;134.252;2023-04-15T03:24:16;5.45;;;3.20;;
46845;SDS011;33947;46.804;134.252;2023-04-15T03:27:20;32.30;;;6.47;;
46845;SDS011;33947;46.804;134.252;2023-04-15T03:30:28;6.65;;;3.50;;
46845;SDS011;33947;46.804;134.252;2023-04-15T03:33:32;5.90;;;4.20;;
46845;SDS011;33947;46.804;134.252;2023-04-15T03:36:36;5.70;;;3.70;;
46845;SDS011;33947;46.804;134.252;2023-04-15T03:39:40;5.95;;;4.20;;
46845;SDS011;33947;46.804;134.252;2023-04-15T03:42:45;9.45;;;3.90;;
46845;SDS011;33947;46.804;134.252;2023-04-15T03:45:50;6.47;;;4.10;;
46845;SDS011;33947;46.804;134.252;2023-04-15T03:48:54;8.57;;;3.90;;
46845;SDS011;33947;46.804;134.252;2023-04-15T03:51:59;7.30;;;4.28;;
46845;SDS011;33947;46.804;134.252;2023-04-15T03:55:03;7.47;;;4.28;;
46845;SDS011;33947;46.804;134.252;2023-04-15T03:58:08;7.20;;;4.70;;
46845;SDS011;33947;46.804;134.252;2023-04-15T04:01:15;8.68;;;5.07;;
46845;SDS011;33947;46.804;134.252;2023-04-15T04:04:19;6.50;;;4.30;;
46845;SDS011;33947;46.804;134.252;2023-04-15T04:07:24;6.00;;;4.40;;
46845;SDS011;33947;46.804;134.252;2023-04-15T04:10:28;8.10;;;4.63;;
46845;SDS011;33947;46.804;134.252;2023-04-15T04:13:32;7.68;;;4.50;;
46845;SDS011;33947;46.804;134.252;2023-04-15T04:16:36;11.07;;;4.90;;
46845;SDS011;33947;46.804;134.252;2023-04-15T04:19:41;8.02;;;5.32;;
46845;SDS011;33947;46.804;134.252;2023-04-15T04:22:45;10.93;;;5.38;;
46845;SDS011;33947;46.804;134.252;2023-04-15T04:25:50;9.32;;;5.60;;
46845;SDS011;33947;46.804;134.252;2023-04-15T04:32:00;13.43;;;6.45;;
46845;SDS011;33947;46.804;134.252;2023-04-15T04:35:04;8.95;;;5.45;;
46845;SDS011;33947;46.804;134.252;2023-04-15T04:38:09;17.65;;;5.45;;
46845;SDS011;33947;46.804;134.252;2023-04-15T04:41:14;11.10;;;4.93;;
46845;SDS011;33947;46.804;134.252;2023-04-15T04:44:19;12.13;;;5.47;;
46845;SDS011;33947;46.804;134.252;2023-04-15T04:47:24;14.13;;;6.03;;
46845;SDS011;33947;46.804;134.252;2023-04-15T04:50:29;7.80;;;4.97;;
46845;SDS011;33947;46.804;134.252;2023-04-15T04:53:34;11.43;;;5.55;;
46845;SDS011;33947;46.804;134.252;2023-04-15T04:56:39;7.40;;;4.85;;
46845;SDS011;33947;46.804;134.252;2023-04-15T04:59:44;13.63;;;6.00;;
46845;SDS011;33947;46.804;134.252;2023-04-15T05:02:49;13.00;;;5.93;;
46845;SDS011;33947;46.804;134.252;2023-04-15T05:05:54;11.50;;;5.65;;
46845;SDS011;33947;46.804;134.252;2023-04-15T05:08:58;22.27;;;5.68;;
46845;SDS011;33947;46.804;134.252;2023-04-15T05:12:04;12.68;;;5.68;;
46845;SDS011;33947;46.804;134.252;2023-04-15T05:15:10;12.73;;;5.43;;
46845;SDS011;33947;46.804;134.252;2023-04-15T05:18:20;9.88;;;6.13;;
46845;SDS011;33947;46.804;134.252;2023-04-15T05:21:24;18.95;;;11.80;;
46845;SDS011;33947;46.804;134.252;2023-04-15T05:24:30;12.20;;;5.40;;
46845;SDS011;33947;46.804;134.252;2023-04-15T05:27:34;9.70;;;6.07;;
46845;SDS011;33947;46.804;134.252;2023-04-15T05:30:39;16.10;;;8.80;;
46845;SDS011;33947;46.804;134.252;2023-04-15T05:33:43;72.88;;;38.55;;
46845;SDS011;33947;46.804;134.252;2023-04-15T05:36:47;10.25;;;5.85;;
46845;SDS011;33947;46.804;134.252;2023-04-15T05:39:54;11.73;;;6.75;;
46845;SDS011;33947;46.804;134.252;2023-04-15T05:42:59;11.00;;;7.53;;
46845;SDS011;33947;46.804;134.252;2023-04-15T05:46:03;16.03;;;6.17;;
46845;SDS011;33947;46.804;134.252;2023-04-15T05:49:08;10.15;;;5.80;;
46845;SDS011;33947;46.804;134.252;2023-04-15T05:52:12;12.80;;;6.20;;
46845;SDS011;33947;46.804;134.252;2023-04-15T05:55:16;10.50;;;6.55;;
46845;SDS011;33947;46.804;134.252;2023-04-15T05:58:21;11.38;;;5.82;;
46845;SDS011;33947;46.804;134.252;2023-04-15T06:01:29;15.20;;;6.68;;
46845;SDS011;33947;46.804;134.252;2023-04-15T06:04:34;28.20;;;8.90;;
46845;SDS011;33947;46.804;134.252;2023-04-15T06:10:48;11.27;;;6.57;;
46845;SDS011;33947;46.804;134.252;2023-04-15T06:13:53;10.88;;;7.05;;
46845;SDS011;33947;46.804;134.252;2023-04-15T06:16:57;16.98;;;7.93;;
46845;SDS011;33947;46.804;134.252;2023-04-15T06:20:02;20.95;;;8.93;;
46845;SDS011;33947;46.804;134.252;2023-04-15T06:23:06;11.77;;;7.40;;
46845;SDS011;33947;46.804;134.252;2023-04-15T06:26:11;28.52;;;14.82;;
46845;SDS011;33947;46.804;134.252;2023-04-15T06:29:15;24.02;;;9.90;;
46845;SDS011;33947;46.804;134.252;2023-04-15T06:32:19;19.30;;;8.63;;
46845;SDS011;33947;46.804;134.252;2023-04-15T06:35:24;11.60;;;7.05;;
46845;SDS011;33947;46.804;134.252;2023-04-15T06:38:28;23.55;;;7.72;;
46845;SDS011;33947;46.804;134.252;2023-04-15T06:41:32;24.25;;;10.60;;
46845;SDS011;33947;46.804;134.252;2023-04-15T06:47:42;11.43;;;7.50;;
46845;SDS011;33947;46.804;134.252;2023-04-15T06:50:47;11.27;;;7.05;;
46845;SDS011;33947;46.804;134.252;2023-04-15T06:53:51;14.48;;;7.35;;
46845;SDS011;33947;46.804;134.252;2023-04-15T06:56:57;11.50;;;7.45;;
46845;SDS011;33947;46.804;134.252;2023-04-15T07:00:03;21.42;;;8.02;;
46845;SDS011;33947;46.804;134.252;2023-04-15T07:03:10;12.57;;;8.93;;
46845;SDS011;33947;46.804;134.252;2023-04-15T07:06:16;14.23;;;7.25;;
46845;SDS011;33947;46.804;134.252;2023-04-15T07:09:21;13.77;;;7.80;;
46845;SDS011;33947;46.804;134.252;2023-04-15T07:15:30;12.57;;;7.78;;
46845;SDS011;33947;46.804;134.252;2023-04-15T07:18:34;9.55;;;7.18;;
46845;SDS011;33947;46.804;134.252;2023-04-15T07:21:38;12.23;;;7.75;;
46845;SDS011;33947;46.804;134.252;2023-04-15T07:24:43;17.00;;;8.88;;
46845;SDS011;33947;46.804;134.252;2023-04-15T07:27:52;32.50;;;18.00;;
46845;SDS011;33947;46.804;134.252;2023-04-15T07:30:56;14.90;;;8.95;;
46845;SDS011;33947;46.804;134.252;2023-04-15T07:34:00;115.45;;;56.83;;
46845;SDS011;33947;46.804;134.252;2023-04-15T07:37:05;16.25;;;8.80;;
46845;SDS011;33947;46.804;134.252;2023-04-15T07:40:10;22.58;;;8.70;;
46845;SDS011;33947;46.804;134.252;2023-04-15T07:43:17;14.15;;;7.40;;
46845;SDS011;33947;46.804;134.252;2023-04-15T07:46:23;20.92;;;9.90;;
46845;SDS011;33947;46.804;134.252;2023-04-15T07:49:29;22.25;;;8.45;;
46845;SDS011;33947;46.804;134.252;2023-04-15T07:52:34;11.23;;;7.18;;
46845;SDS011;33947;46.804;134.252;2023-04-15T07:55:41;14.82;;;8.32;;
46845;SDS011;33947;46.804;134.252;2023-04-15T07:58:46;22.13;;;7.82;;
46845;SDS011;33947;46.804;134.252;2023-04-15T08:01:50;16.60;;;8.70;;
46845;SDS011;33947;46.804;134.252;2023-04-15T08:04:55;15.73;;;7.82;;
46845;SDS011;33947;46.804;134.252;2023-04-15T08:08:00;28.95;;;13.45;;
46845;SDS011;33947;46.804;134.252;2023-04-15T08:11:04;27.42;;;11.32;;
46845;SDS011;33947;46.804;134.252;2023-04-15T08:14:08;13.82;;;7.10;;
46845;SDS011;33947;46.804;134.252;2023-04-15T08:17:13;11.18;;;5.93;;
46845;SDS011;33947;46.804;134.252;2023-04-15T08:20:18;9.38;;;5.50;;
46845;SDS011;33947;46.804;134.252;2023-04-15T08:23:23;11.10;;;5.70;;
46845;SDS011;33947;46.804;134.252;2023-04-15T08:26:27;16.33;;;6.90;;
46845;SDS011;33947;46.804;134.252;2023-04-15T08:29:31;10.90;;;5.88;;
46845;SDS011;33947;46.804;134.252;2023-04-15T08:32:36;13.95;;;6.68;;
46845;SDS011;33947;46.804;134.252;2023-04-15T08:35:40;34.03;;;8.35;;
46845;SDS011;33947;46.804;134.252;2023-04-15T08:38:44;12.52;;;5.82;;
46845;SDS011;33947;46.804;134.252;2023-04-15T08:41:59;20.25;;;6.85;;
46845;SDS011;33947;46.804;134.252;2023-04-15T08:45:06;31.85;;;17.05;;
46845;SDS011;33947;46.804;134.252;2023-04-15T08:48:15;18.55;;;8.60;;
46845;SDS011;33947;46.804;134.252;2023-04-15T08:51:20;51.53;;;21.35;;
46845;SDS011;33947;46.804;134.252;2023-04-15T08:54:26;24.52;;;11.40;;
46845;SDS011;33947;46.804;134.252;2023-04-15T08:57:32;20.73;;;11.80;;
46845;SDS011;33947;46.804;134.252;2023-04-15T09:00:37;42.50;;;15.65;;
46845;SDS011;33947;46.804;134.252;2023-04-15T09:03:41;24.05;;;14.25;;
46845;SDS011;33947;46.804;134.252;2023-04-15T09:06:47;18.48;;;10.32;;
46845;SDS011;33947;46.804;134.252;2023-04-15T09:09:51;22.45;;;7.93;;
46845;SDS011;33947;46.804;134.252;2023-04-15T09:12:56;26.23;;;11.55;;
46845;SDS011;33947;46.804;134.252;2023-04-15T09:16:29;17.90;;;10.75;;
46845;SDS011;33947;46.804;134.252;2023-04-15T09:19:33;23.52;;;8.70;;
46845;SDS011;33947;46.804;134.252;2023-04-15T09:22:38;12.73;;;7.00;;
46845;SDS011;33947;46.804;134.252;2023-04-15T09:25:49;28.80;;;7.45;;
46845;SDS011;33947;46.804;134.252;2023-04-15T09:28:54;21.92;;;11.73;;
46845;SDS011;33947;46.804;134.252;2023-04-15T09:32:17;21.35;;;10.70;;
46845;SDS011;33947;46.804;134.252;2023-04-15T09:35:24;36.20;;;15.80;;
46845;SDS011;33947;46.804;134.252;2023-04-15T09:38:32;19.55;;;7.72;;
46845;SDS011;33947;46.804;134.252;2023-04-15T09:41:37;19.13;;;8.40;;
46845;SDS011;33947;46.804;134.252;2023-04-15T09:44:41;52.63;;;18.23;;
46845;SDS011;33947;46.804;134.252;2023-04-15T09:47:46;99.70;;;37.23;;
46845;SDS011;33947;46.804;134.252;2023-04-15T09:50:52;104.30;;;39.67;;
46845;SDS011;33947;46.804;134.252;2023-04-15T09:54:00;62.17;;;29.45;;
46845;SDS011;33947;46.804;134.252;2023-04-15T09:57:05;29.95;;;16.15;;
46845;SDS011;33947;46.804;134.252;2023-04-15T10:00:14;33.90;;;15.10;;
46845;SDS011;33947;46.804;134.252;2023-04-15T10:03:29;74.90;;;27.58;;
46845;SDS011;33947;46.804;134.252;2023-04-15T10:06:37;33.53;;;16.42;;
46845;SDS011;33947;46.804;134.252;2023-04-15T10:09:44;139.00;;;61.67;;
46845;SDS011;33947;46.804;134.252;2023-04-15T10:12:49;44.97;;;21.20;;
46845;SDS011;33947;46.804;134.252;2023-04-15T10:15:57;129.63;;;60.72;;
46845;SDS011;33947;46.804;134.252;2023-04-15T10:19:04;103.65;;;48.42;;
46845;SDS011;33947;46.804;134.252;2023-04-15T10:22:11;46.65;;;27.33;;
46845;SDS011;33947;46.804;134.252;2023-04-15T10:25:17;70.72;;;50.47;;
46845;SDS011;33947;46.804;134.252;2023-04-15T10:28:22;40.28;;;22.67;;
46845;SDS011;33947;46.804;134.252;2023-04-15T10:31:26;22.92;;;9.77;;
46845;SDS011;33947;46.804;134.252;2023-04-15T10:37:38;14.32;;;6.95;;
46845;SDS011;33947;46.804;134.252;2023-04-15T10:40:43;15.10;;;7.32;;
46845;SDS011;33947;46.804;134.252;2023-04-15T10:43:52;20.88;;;8.13;;
46845;SDS011;33947;46.804;134.252;2023-04-15T10:46:59;23.45;;;11.18;;
46845;SDS011;33947;46.804;134.252;2023-04-15T10:50:04;34.67;;;15.90;;
46845;SDS011;33947;46.804;134.252;2023-04-15T10:53:09;58.55;;;25.98;;
46845;SDS011;33947;46.804;134.252;2023-04-15T10:56:15;48.05;;;24.13;;
46845;SDS011;33947;46.804;134.252;2023-04-15T10:59:20;65.10;;;31.42;;
46845;SDS011;33947;46.804;134.252;2023-04-15T11:02:41;50.60;;;27.40;;
46845;SDS011;33947;46.804;134.252;2023-04-15T11:05:48;53.60;;;25.08;;
46845;SDS011;33947;46.804;134.252;2023-04-15T11:08:55;44.03;;;24.33;;
46845;SDS011;33947;46.804;134.252;2023-04-15T11:12:08;42.00;;;20.55;;
46845;SDS011;33947;46.804;134.252;2023-04-15T11:18:52;33.45;;;16.45;;
46845;SDS011;33947;46.804;134.252;2023-04-15T11:22:05;37.75;;;17.08;;
46845;SDS011;33947;46.804;134.252;2023-04-15T11:25:32;35.53;;;19.17;;
46845;SDS011;33947;46.804;134.252;2023-04-15T11:28:39;74.93;;;29.25;;
46845;SDS011;33947;46.804;134.252;2023-04-15T11:31:46;56.60;;;22.83;;
46845;SDS011;33947;46.804;134.252;2023-04-15T11:34:51;22.55;;;12.85;;
46845;SDS011;33947;46.804;134.252;2023-04-15T11:37:56;25.10;;;14.02;;
46845;SDS011;33947;46.804;134.252;2023-04-15T11:41:00;48.35;;;22.33;;
46845;SDS011;33947;46.804;134.252;2023-04-15T11:44:15;19.42;;;10.95;;
46845;SDS011;33947;46.804;134.252;2023-04-15T11:47:21;28.77;;;16.30;;
46845;SDS011;33947;46.804;134.252;2023-04-15T11:50:26;44.78;;;22.83;;
46845;SDS011;33947;46.804;134.252;2023-04-15T11:53:37;45.15;;;22.38;;
46845;SDS011;33947;46.804;134.252;2023-04-15T11:56:41;40.20;;;20.38;;
46845;SDS011;33947;46.804;134.252;2023-04-15T11:59:54;60.13;;;27.75;;
46845;SDS011;33947;46.804;134.252;2023-04-15T12:03:16;49.15;;;24.17;;
46845;SDS011;33947;46.804;134.252;2023-04-15T12:06:24;48.63;;;24.83;;
46845;SDS011;33947;46.804;134.252;2023-04-15T12:09:38;47.13;;;22.20;;
46845;SDS011;33947;46.804;134.252;2023-04-15T12:12:43;38.83;;;19.77;;
46845;SDS011;33947;46.804;134.252;2023-04-15T12:15:54;168.55;;;63.70;;
46845;SDS011;33947;46.804;134.252;2023-04-15T12:18:59;152.93;;;68.35;;
46845;SDS011;33947;46.804;134.252;2023-04-15T12:22:08;70.78;;;35.25;;
46845;SDS011;33947;46.804;134.252;2023-04-15T12:25:16;93.78;;;47.30;;
46845;SDS011;33947;46.804;134.252;2023-04-15T12:28:20;226.30;;;69.53;;
46845;SDS011;33947;46.804;134.252;2023-04-15T12:31:25;193.05;;;69.40;;
46845;SDS011;33947;46.804;134.252;2023-04-15T12:34:30;160.48;;;58.80;;
46845;SDS011;33947;46.804;134.252;2023-04-15T12:37:36;87.93;;;39.80;;
46845;SDS011;33947;46.804;134.252;2023-04-15T12:40:40;124.20;;;43.30;;
46845;SDS011;33947;46.804;134.252;2023-04-15T12:43:45;110.90;;;43.47;;
46845;SDS011;33947;46.804;134.252;2023-04-15T12:46:49;129.93;;;53.00;;
46845;SDS011;33947;46.804;134.252;2023-04-15T12:49:58;113.60;;;45.72;;
46845;SDS011;33947;46.804;134.252;2023-04-15T12:53:04;117.65;;;48.45;;
46845;SDS011;33947;46.804;134.252;2023-04-15T12:56:09;99.63;;;39.30;;
46845;SDS011;33947;46.804;134.252;2023-04-15T12:59:15;103.55;;;37.75;;
46845;SDS011;33947;46.804;134.252;2023-04-15T13:05:27;51.33;;;22.00;;
46845;SDS011;33947;46.804;134.252;2023-04-15T13:08:32;59.83;;;24.33;;
46845;SDS011;33947;46.804;134.252;2023-04-15T13:11:42;89.20;;;30.17;;
46845;SDS011;33947;46.804;134.252;2023-04-15T13:14:47;167.60;;;63.70;;
46845;SDS011;33947;46.804;134.252;2023-04-15T13:17:51;84.80;;;32.30;;
46845;SDS011;33947;46.804;134.252;2023-04-15T13:20:56;30.38;;;13.50;;
46845;SDS011;33947;46.804;134.252;2023-04-15T13:24:00;57.15;;;22.92;;
46845;SDS011;33947;46.804;134.252;2023-04-15T13:27:06;108.38;;;41.30;;
46845;SDS011;33947;46.804;134.252;2023-04-15T13:30:10;107.33;;;42.00;;
46845;SDS011;33947;46.804;134.252;2023-04-15T13:33:15;38.50;;;17.40;;
46845;SDS011;33947;46.804;134.252;2023-04-15T13:36:20;57.20;;;19.88;;
46845;SDS011;33947;46.804;134.252;2023-04-15T13:39:25;107.15;;;43.13;;
46845;SDS011;33947;46.804;134.252;2023-04-15T13:42:29;94.13;;;40.20;;
46845;SDS011;33947;46.804;134.252;2023-04-15T13:45:34;144.80;;;51.67;;
46845;SDS011;33947;46.804;134.252;2023-04-15T13:48:38;52.38;;;22.75;;
46845;SDS011;33947;46.804;134.252;2023-04-15T13:51:43;103.67;;;41.73;;
46845;SDS011;33947;46.804;134.252;2023-04-15T13:54:47;150.65;;;53.85;;
46845;SDS011;33947;46.804;134.252;2023-04-15T13:58:12;129.50;;;49.13;;
46845;SDS011;33947;46.804;134.252;2023-04-15T14:01:16;58.30;;;29.02;;
46845;SDS011;33947;46.804;134.252;2023-04-15T14:04:21;39.78;;;18.08;;
46845;SDS011;33947;46.804;134.252;2023-04-15T14:07:25;28.00;;;13.63;;
46845;SDS011;33947;46.804;134.252;2023-04-15T14:10:31;57.85;;;24.13;;
46845;SDS011;33947;46.804;134.252;2023-04-15T14:13:36;48.92;;;23.08;;
46845;SDS011;33947;46.804;134.252;2023-04-15T14:16:41;97.93;;;39.22;;
46845;SDS011;33947;46.804;134.252;2023-04-15T14:19:46;51.83;;;25.47;;
46845;SDS011;33947;46.804;134.252;2023-04-15T14:22:50;29.20;;;16.10;;
46845;SDS011;33947;46.804;134.252;2023-04-15T14:25:55;29.10;;;14.65;;
46845;SDS011;33947;46.804;134.252;2023-04-15T14:28:59;37.00;;;19.13;;
46845;SDS011;33947;46.804;134.252;2023-04-15T14:32:04;41.17;;;20.00;;
46845;SDS011;33947;46.804;134.252;2023-04-15T14:35:14;50.45;;;22.67;;
46845;SDS011;33947;46.804;134.252;2023-04-15T14:38:19;43.72;;;21.02;;
46845;SDS011;33947;46.804;134.252;2023-04-15T14:41:29;57.25;;;28.02;;
46845;SDS011;33947;46.804;134.252;2023-04-15T14:44:37;42.22;;;19.92;;
46845;SDS011;33947;46.804;134.252;2023-04-15T14:47:41;37.15;;;17.58;;
46845;SDS011;33947;46.804;134.252;2023-04-15T14:50:46;33.03;;;15.95;;
46845;SDS011;33947;46.804;134.252;2023-04-15T14:53:51;23.48;;;10.48;;
46845;SDS011;33947;46.804;134.252;2023-04-15T14:56:56;16.27;;;9.50;;
46845;SDS011;33947;46.804;134.252;2023-04-15T15:00:01;16.77;;;9.15;;
46845;SDS011;33947;46.804;134.252;2023-04-15T15:03:08;17.13;;;8.45;;
46845;SDS011;33947;46.804;134.252;2023-04-15T15:06:15;49.10;;;19.25;;
46845;SDS011;33947;46.804;134.252;2023-04-15T15:09:20;39.10;;;17.90;;
46845;SDS011;33947;46.804;134.252;2023-04-15T15:12:26;41.65;;;19.58;;
46845;SDS011;33947;46.804;134.252;2023-04-15T15:15:31;29.92;;;13.65;;
46845;SDS011;33947;46.804;134.252;2023-04-15T15:18:37;22.10;;;9.90;;
46845;SDS011;33947;46.804;134.252;2023-04-15T15:21:41;24.52;;;11.63;;
46845;SDS011;33947;46.804;134.252;2023-04-15T15:24:46;24.42;;;11.57;;
46845;SDS011;33947;46.804;134.252;2023-04-15T15:27:51;27.15;;;12.77;;
46845;SDS011;33947;46.804;134.252;2023-04-15T15:30:55;28.42;;;14.02;;
46845;SDS011;33947;46.804;134.252;2023-04-15T15:34:00;30.88;;;13.02;;
46845;SDS011;33947;46.804;134.252;2023-04-15T15:37:05;32.60;;;14.48;;
46845;SDS011;33947;46.804;134.252;2023-04-15T15:40:09;36.40;;;17.55;;
46845;SDS011;33947;46.804;134.252;2023-04-15T15:43:14;45.95;;;21.10;;
46845;SDS011;33947;46.804;134.252;2023-04-15T15:46:19;30.40;;;13.70;;
46845;SDS011;33947;46.804;134.252;2023-04-15T15:49:26;32.47;;;17.25;;
46845;SDS011;33947;46.804;134.252;2023-04-15T15:52:31;30.53;;;12.60;;
46845;SDS011;33947;46.804;134.252;2023-04-15T15:55:36;29.33;;;13.75;;
46845;SDS011;33947;46.804;134.252;2023-04-15T15:58:41;28.33;;;12.87;;
46845;SDS011;33947;46.804;134.252;2023-04-15T16:01:48;25.23;;;11.13;;
46845;SDS011;33947;46.804;134.252;2023-04-15T16:04:53;29.10;;;14.45;;
46845;SDS011;33947;46.804;134.252;2023-04-15T16:07:57;34.17;;;14.75;;
46845;SDS011;33947;46.804;134.252;2023-04-15T16:11:02;47.20;;;17.75;;
46845;SDS011;33947;46.804;134.252;2023-04-15T16:14:07;54.70;;;18.92;;
46845;SDS011;33947;46.804;134.252;2023-04-15T16:20:17;22.50;;;10.40;;
46845;SDS011;33947;46.804;134.252;2023-04-15T16:23:21;36.45;;;15.20;;
46845;SDS011;33947;46.804;134.252;2023-04-15T16:26:26;53.05;;;17.92;;
46845;SDS011;33947;46.804;134.252;2023-04-15T16:29:31;32.47;;;15.32;;
46845;SDS011;33947;46.804;134.252;2023-04-15T16:32:36;21.33;;;10.70;;
46845;SDS011;33947;46.804;134.252;2023-04-15T16:35:41;25.48;;;10.95;;
46845;SDS011;33947;46.804;134.252;2023-04-15T16:38:46;44.03;;;18.83;;
46845;SDS011;33947;46.804;134.252;2023-04-15T16:41:52;33.47;;;15.05;;
46845;SDS011;33947;46.804;134.252;2023-04-15T16:44:56;32.90;;;12.52;;
46845;SDS011;33947;46.804;134.252;2023-04-15T16:48:01;82.15;;;26.80;;
46845;SDS011;33947;46.804;134.252;2023-04-15T16:51:16;83.15;;;25.65;;
46845;SDS011;33947;46.804;134.252;2023-04-15T16:54:20;27.75;;;11.18;;
46845;SDS011;33947;46.804;134.252;2023-04-15T16:57:25;17.40;;;7.60;;
46845;SDS011;33947;46.804;134.252;2023-04-15T17:00:49;106.68;;;29.63;;
46845;SDS011;33947;46.804;134.252;2023-04-15T17:03:54;28.30;;;10.88;;
46845;SDS011;33947;46.804;134.252;2023-04-15T17:06:59;33.58;;;11.20;;
46845;SDS011;33947;46.804;134.252;2023-04-15T17:10:04;23.80;;;11.80;;
46845;SDS011;33947;46.804;134.252;2023-04-15T17:13:09;20.63;;;9.57;;
46845;SDS011;33947;46.804;134.252;2023-04-15T17:16:14;37.80;;;19.03;;
46845;SDS011;33947;46.804;134.252;2023-04-15T17:19:20;33.47;;;15.90;;
46845;SDS011;33947;46.804;134.252;2023-04-15T17:22:38;19.20;;;8.68;;
46845;SDS011;33947;46.804;134.252;2023-04-15T17:25:43;15.05;;;7.15;;
46845;SDS011;33947;46.804;134.252;2023-04-15T17:28:50;13.23;;;6.97;;
46845;SDS011;33947;46.804;134.252;2023-04-15T17:32:02;15.07;;;7.10;;
46845;SDS011;33947;46.804;134.252;2023-04-15T17:35:27;18.10;;;10.02;;
46845;SDS011;33947;46.804;134.252;2023-04-15T17:38:54;21.23;;;10.02;;
46845;SDS011;33947;46.804;134.252;2023-04-15T17:42:18;13.57;;;7.28;;
46845;SDS011;33947;46.804;134.252;2023-04-15T17:45:44;15.33;;;8.30;;
46845;SDS011;33947;46.804;134.252;2023-04-15T17:49:09;20.30;;;11.93;;
46845;SDS011;33947;46.804;134.252;2023-04-15T17:52:33;19.85;;;10.60;;
46845;SDS011;33947;46.804;134.252;2023-04-15T17:55:58;23.88;;;13.55;;
46845;SDS011;33947;46.804;134.252;2023-04-15T17:59:23;18.58;;;11.13;;
46845;SDS011;33947;46.804;134.252;2023-04-15T18:02:47;24.08;;;12.45;;
46845;SDS011;33947;46.804;134.252;2023-04-15T18:06:12;30.33;;;15.75;;
46845;SDS011;33947;46.804;134.252;2023-04-15T18:09:36;21.33;;;11.77;;
46845;SDS011;33947;46.804;134.252;2023-04-15T18:13:01;23.92;;;13.68;;
46845;SDS011;33947;46.804;134.252;2023-04-15T18:16:25;25.10;;;13.05;;
46845;SDS011;33947;46.804;134.252;2023-04-15T18:19:49;24.60;;;13.82;;